Terminal Aerodrome Forecast
Issued by NWS

Home | Current Version | Previous Version | Text Only | Print | Product List | Glossary On
Versions: 1 2 3 4 5 6 7 8 9 10 11 12 13 14 15 16 17
000
FTAK31 PAJN 271124
TAFAKT
TAF
PAKT 271124Z 2712/2812 14007KT P6SM -RA OVC050
     FM272000 13008KT 5SM -SHRA BR OVC025
     FM280000 15008KT 4SM -RA BR BKN015 OVC025
     FM280900 14007KT 6SM -RA BR SCT015 OVC025
      AMD LTD TO CLD VIS AND WIND 2712/2715=

USA.gov is the U.S. government's official web portal to all federal, state and local government web resources and services.